Time;durP1;ratioP1;P1;durP2;ratioP2;P2;SDS_P1;SDS_P2;PMS_P1;PMS_P2;Temp;Humidity;BMP_temperature;BMP_pressure;BME280_temperature;BME280_humidity;BME280_pressure;Samples;Min_cycle;Max_cycle;Signal;HPM_P1;HPM_P2
2022/04/02 00:00:33;;;;;;;0.30;0.30;;;;;;;;;;6332708;22;20211;-74
2022/04/02 00:03:00;;;;;;;0.20;0.20;;;;;;;;;;6347794;22;20178;-76
2022/04/02 00:05:27;;;;;;;0.20;0.20;;;;;;;;;;6332582;22;20426;-76
2022/04/02 00:07:53;;;;;;;0.23;0.23;;;;;;;;;;6347710;22;20184;-74
2022/04/02 00:10:20;;;;;;;0.30;0.30;;;;;;;;;;6332760;22;20373;-75
2022/04/02 00:12:46;;;;;;;0.30;0.30;;;;;;;;;;6348011;22;20165;-75
2022/04/02 00:15:14;;;;;;;0.20;0.20;;;;;;;;;;6332899;22;20198;-76
2022/04/02 00:17:41;;;;;;;0.20;0.20;;;;;;;;;;6347646;22;20175;-75
2022/04/02 00:20:08;;;;;;;0.30;0.30;;;;;;;;;;6333474;22;20178;-75
2022/04/02 00:22:34;;;;;;;0.20;0.20;;;;;;;;;;6347465;22;20204;-74
2022/04/02 00:25:01;;;;;;;0.20;0.20;;;;;;;;;;6348721;22;20169;-74
2022/04/02 00:27:27;;;;;;;0.23;0.23;;;;;;;;;;6331633;22;20231;-76
2022/04/02 00:29:53;;;;;;;0.30;0.30;;;;;;;;;;6348913;22;20178;-74
2022/04/02 00:32:22;;;;;;;0.30;0.30;;;;;;;;;;6331655;22;20273;-74
2022/04/02 00:34:50;;;;;;;0.23;0.23;;;;;;;;;;6349108;22;20227;-74
2022/04/02 00:37:16;;;;;;;0.30;0.30;;;;;;;;;;6331386;22;20260;-75
2022/04/02 00:39:42;;;;;;;0.23;0.23;;;;;;;;;;6349332;22;20177;-76
2022/04/02 00:42:09;;;;;;;0.20;0.20;;;;;;;;;;6331861;22;20209;-74
2022/04/02 00:44:35;;;;;;;0.20;0.20;;;;;;;;;;6349259;22;20174;-75
2022/04/02 00:47:04;;;;;;;0.30;0.30;;;;;;;;;;6331567;22;20212;-74
2022/04/02 00:49:31;;;;;;;0.20;0.20;;;;;;;;;;6349330;22;20229;-75
2022/04/02 00:51:58;;;;;;;0.20;0.20;;;;;;;;;;6330718;22;20500;-75
2022/04/02 00:54:24;;;;;;;0.30;0.30;;;;;;;;;;6349262;22;20213;-74
2022/04/02 00:56:51;;;;;;;0.20;0.20;;;;;;;;;;6331156;22;20208;-74
2022/04/02 00:59:18;;;;;;;0.20;0.20;;;;;;;;;;6348848;22;20177;-74
2022/04/02 01:01:45;;;;;;;0.20;0.20;;;;;;;;;;6331486;22;20215;-74
2022/04/02 01:04:11;;;;;;;0.20;0.20;;;;;;;;;;6348894;22;20173;-74
2022/04/02 01:06:40;;;;;;;0.30;0.30;;;;;;;;;;6331391;22;20254;-74
2022/04/02 01:09:10;;;;;;;0.20;0.20;;;;;;;;;;6348620;22;20181;-76
2022/04/02 01:11:37;;;;;;;0.20;0.20;;;;;;;;;;6331768;22;20292;-74
2022/04/02 01:14:04;;;;;;;0.20;0.20;;;;;;;;;;6348174;22;20201;-74
2022/04/02 01:16:30;;;;;;;0.20;0.20;;;;;;;;;;6331733;22;20504;-74
2022/04/02 01:18:57;;;;;;;0.20;0.20;;;;;;;;;;6320791;22;20177;-74
2022/04/02 01:21:23;;;;;;;0.20;0.20;;;;;;;;;;6331845;22;20284;-75
2022/04/02 01:23:51;;;;;;;0.20;0.20;;;;;;;;;;6347798;22;20472;-74
2022/04/02 01:26:19;;;;;;;0.30;0.30;;;;;;;;;;6330847;22;20210;-74
2022/04/02 01:28:53;;;;;;;0.20;0.20;;;;;;;;;;6348179;22;20181;-74
2022/04/02 01:31:20;;;;;;;0.27;0.27;;;;;;;;;;6331789;22;20208;-74
2022/04/02 01:33:48;;;;;;;0.20;0.20;;;;;;;;;;6347642;22;20203;-75
2022/04/02 01:36:14;;;;;;;0.20;0.20;;;;;;;;;;6331599;22;20209;-74
2022/04/02 01:38:41;;;;;;;0.23;0.23;;;;;;;;;;6320591;22;20186;-75
2022/04/02 01:41:09;;;;;;;0.27;0.27;;;;;;;;;;6304648;22;20539;-75
2022/04/02 01:43:35;;;;;;;0.30;0.30;;;;;;;;;;6347618;22;20219;-75
2022/04/02 01:46:02;;;;;;;0.30;0.30;;;;;;;;;;6331453;22;20259;-74
2022/04/02 01:48:29;;;;;;;0.20;0.20;;;;;;;;;;6347437;22;20185;-74
2022/04/02 01:50:56;;;;;;;0.30;0.30;;;;;;;;;;6331822;22;20417;-74
2022/04/02 01:53:23;;;;;;;0.27;0.27;;;;;;;;;;6347110;22;20177;-76
2022/04/02 01:55:50;;;;;;;0.20;0.20;;;;;;;;;;6330973;22;20434;-76
2022/04/02 01:58:18;;;;;;;0.30;0.30;;;;;;;;;;6347159;22;20242;-74
2022/04/02 02:00:45;;;;;;;0.30;0.30;;;;;;;;;;6331878;22;20412;-75
2022/04/02 02:03:12;;;;;;;0.20;0.20;;;;;;;;;;6347579;22;20177;-75
2022/04/02 02:05:39;;;;;;;0.20;0.20;;;;;;;;;;6332030;22;20250;-75
2022/04/02 02:08:05;;;;;;;0.20;0.20;;;;;;;;;;6347145;22;20248;-74
2022/04/02 02:10:32;;;;;;;0.30;0.30;;;;;;;;;;6332239;22;20460;-74
2022/04/02 02:12:58;;;;;;;0.30;0.30;;;;;;;;;;6347153;22;20166;-76
2022/04/02 02:15:27;;;;;;;0.30;0.30;;;;;;;;;;6331855;22;20222;-74
2022/04/02 02:17:53;;;;;;;0.20;0.20;;;;;;;;;;6346327;22;20197;-74
2022/04/02 02:20:20;;;;;;;0.20;0.20;;;;;;;;;;6331965;22;20236;-77
2022/04/02 02:22:47;;;;;;;0.30;0.30;;;;;;;;;;6346815;22;20164;-74
2022/04/02 02:25:15;;;;;;;0.20;0.20;;;;;;;;;;6331791;22;20381;-76
2022/04/02 02:27:42;;;;;;;0.30;0.30;;;;;;;;;;6346297;22;20177;-75
2022/04/02 02:30:10;;;;;;;0.20;0.20;;;;;;;;;;6332066;22;20181;-74
2022/04/02 02:32:37;;;;;;;0.20;0.20;;;;;;;;;;6346456;22;20473;-76
2022/04/02 02:37:48;;;;;;;0.23;0.23;;;;;;;;;;6347499;22;20549;-76
2022/04/02 02:40:15;;;;;;;0.20;0.20;;;;;;;;;;6332132;22;20184;-75
2022/04/02 02:42:41;;;;;;;0.27;0.27;;;;;;;;;;6320157;22;20488;-76
2022/04/02 02:45:08;;;;;;;0.30;0.30;;;;;;;;;;6332086;22;20212;-75
2022/04/02 02:47:35;;;;;;;0.20;0.20;;;;;;;;;;6346002;22;20238;-74
2022/04/02 02:50:03;;;;;;;0.30;0.30;;;;;;;;;;6347563;22;20180;-75
2022/04/02 02:52:29;;;;;;;0.30;0.30;;;;;;;;;;6330381;22;20209;-74
2022/04/02 02:54:56;;;;;;;0.20;0.20;;;;;;;;;;6347386;22;20212;-74
2022/04/02 02:57:22;;;;;;;0.20;0.20;;;;;;;;;;6330331;22;20527;-75
2022/04/02 02:59:50;;;;;;;0.20;0.20;;;;;;;;;;6347542;22;20184;-75
2022/04/02 03:02:17;;;;;;;0.20;0.20;;;;;;;;;;6330823;22;20220;-74
2022/04/02 03:04:43;;;;;;;0.30;0.30;;;;;;;;;;6347649;22;20174;-75
2022/04/02 03:07:11;;;;;;;0.20;0.20;;;;;;;;;;6330556;22;20209;-74
2022/04/02 03:09:37;;;;;;;0.20;0.20;;;;;;;;;;6347406;22;20177;-74
2022/04/02 03:12:03;;;;;;;0.20;0.20;;;;;;;;;;6330339;22;20246;-74
2022/04/02 03:14:30;;;;;;;0.20;0.20;;;;;;;;;;6347576;22;20301;-76
2022/04/02 03:16:56;;;;;;;0.20;0.20;;;;;;;;;;6330590;22;20268;-73
2022/04/02 03:19:24;;;;;;;0.20;0.20;;;;;;;;;;6347326;22;20177;-75
2022/04/02 03:21:50;;;;;;;0.20;0.20;;;;;;;;;;6330382;22;20463;-75
2022/04/02 03:24:18;;;;;;;0.20;0.20;;;;;;;;;;6347191;22;20219;-74
2022/04/02 03:26:47;;;;;;;0.20;0.20;;;;;;;;;;6330342;22;20294;-76
2022/04/02 03:29:13;;;;;;;0.20;0.20;;;;;;;;;;6347558;22;20338;-74
2022/04/02 03:31:40;;;;;;;0.30;0.30;;;;;;;;;;6332409;22;20205;-75
2022/04/02 03:34:08;;;;;;;0.30;0.30;;;;;;;;;;6349054;22;20241;-75
2022/04/02 03:36:34;;;;;;;0.20;0.20;;;;;;;;;;6332265;22;20215;-75
2022/04/02 03:39:00;;;;;;;0.20;0.20;;;;;;;;;;6349011;22;20196;-74
2022/04/02 03:41:28;;;;;;;0.20;0.20;;;;;;;;;;6332524;22;20209;-75
2022/04/02 03:43:57;;;;;;;0.20;0.20;;;;;;;;;;6321562;22;20178;-75
2022/04/02 03:49:04;;;;;;;0.30;0.30;;;;;;;;;;6281270;22;20169;-75
2022/04/02 03:51:31;;;;;;;0.30;0.30;;;;;;;;;;6332534;22;20411;-74
2022/04/02 03:54:00;;;;;;;0.27;0.27;;;;;;;;;;6348205;22;20195;-75
2022/04/02 03:56:29;;;;;;;0.20;0.20;;;;;;;;;;6332332;22;20209;-74
2022/04/02 03:58:55;;;;;;;0.20;0.20;;;;;;;;;;6347798;22;20402;-74
2022/04/02 04:01:22;;;;;;;0.20;0.20;;;;;;;;;;6332319;22;20255;-75
2022/04/02 04:03:55;;;;;;;0.20;0.20;;;;;;;;;;6348600;22;20388;-75
2022/04/02 04:06:22;;;;;;;0.20;0.20;;;;;;;;;;6332313;22;20235;-75
2022/04/02 04:08:48;;;;;;;0.20;0.20;;;;;;;;;;6348705;22;20179;-77
2022/04/02 04:11:16;;;;;;;0.20;0.20;;;;;;;;;;6332300;22;20209;-74
2022/04/02 04:13:44;;;;;;;0.30;0.30;;;;;;;;;;6348564;22;20196;-76
2022/04/02 04:16:10;;;;;;;0.30;0.30;;;;;;;;;;6332521;22;20260;-75
2022/04/02 04:18:37;;;;;;;0.20;0.20;;;;;;;;;;6348297;22;20177;-75
2022/04/02 04:21:04;;;;;;;0.20;0.20;;;;;;;;;;6332608;22;20208;-73
2022/04/02 04:23:30;;;;;;;0.27;0.27;;;;;;;;;;6348337;22;20350;-74
2022/04/02 04:25:57;;;;;;;0.20;0.20;;;;;;;;;;6332901;22;20468;-74
2022/04/02 04:28:23;;;;;;;0.20;0.20;;;;;;;;;;6348378;22;20324;-75
2022/04/02 04:30:51;;;;;;;0.20;0.20;;;;;;;;;;6332530;22;20441;-75
2022/04/02 04:33:17;;;;;;;0.20;0.20;;;;;;;;;;6347974;22;20182;-75
2022/04/02 04:35:43;;;;;;;0.30;0.30;;;;;;;;;;6332436;22;20229;-74
2022/04/02 04:38:10;;;;;;;0.20;0.20;;;;;;;;;;6347787;22;20189;-74
2022/04/02 04:40:39;;;;;;;0.30;0.30;;;;;;;;;;6332947;22;20216;-74
2022/04/02 04:43:07;;;;;;;0.20;0.20;;;;;;;;;;6347211;22;20238;-74
2022/04/02 04:45:33;;;;;;;0.30;0.30;;;;;;;;;;6332449;22;20232;-76
2022/04/02 04:48:01;;;;;;;0.30;0.30;;;;;;;;;;6347705;22;20170;-75
2022/04/02 04:50:27;;;;;;;0.30;0.30;;;;;;;;;;6332947;22;20216;-76
2022/04/02 04:52:54;;;;;;;0.30;0.30;;;;;;;;;;6347560;22;20173;-75
2022/04/02 04:55:20;;;;;;;0.23;0.23;;;;;;;;;;6332516;22;20239;-74
2022/04/02 04:57:48;;;;;;;0.27;0.27;;;;;;;;;;6347431;22;20170;-76
2022/04/02 05:00:16;;;;;;;0.70;0.70;;;;;;;;;;6332835;22;20185;-75
2022/04/02 05:02:44;;;;;;;0.30;0.30;;;;;;;;;;6347402;22;20391;-76
2022/04/02 05:05:12;;;;;;;0.20;0.20;;;;;;;;;;6332374;22;20234;-75
2022/04/02 05:07:39;;;;;;;0.30;0.30;;;;;;;;;;6347153;22;20368;-75
2022/04/02 05:10:07;;;;;;;0.30;0.30;;;;;;;;;;6340079;22;20185;-75
2022/04/02 05:12:33;;;;;;;0.30;0.30;;;;;;;;;;6347156;22;20179;-73
2022/04/02 05:15:00;;;;;;;0.30;0.30;;;;;;;;;;6349195;22;20555;-76
2022/04/02 05:17:26;;;;;;;0.20;0.20;;;;;;;;;;6331307;22;20429;-74
2022/04/02 05:19:54;;;;;;;0.30;0.30;;;;;;;;;;6348769;22;20185;-75
2022/04/02 05:22:22;;;;;;;0.30;0.30;;;;;;;;;;6331193;22;20268;-76
2022/04/02 05:24:48;;;;;;;0.30;0.30;;;;;;;;;;6348736;22;20181;-74
2022/04/02 05:27:17;;;;;;;0.30;0.30;;;;;;;;;;6331146;22;20209;-74
2022/04/02 05:29:44;;;;;;;0.20;0.20;;;;;;;;;;6348225;22;20199;-73
2022/04/02 05:32:10;;;;;;;0.20;0.20;;;;;;;;;;6331024;22;20209;-74
2022/04/02 05:34:36;;;;;;;0.30;0.30;;;;;;;;;;6348284;22;20197;-76
2022/04/02 05:37:03;;;;;;;0.20;0.20;;;;;;;;;;6330761;22;20236;-75
2022/04/02 05:39:33;;;;;;;0.30;0.30;;;;;;;;;;6348401;22;20174;-73
2022/04/02 05:42:00;;;;;;;0.20;0.20;;;;;;;;;;6329614;22;20266;-75
2022/04/02 05:44:26;;;;;;;0.20;0.20;;;;;;;;;;6348502;22;20185;-75
2022/04/02 05:46:53;;;;;;;0.30;0.30;;;;;;;;;;6239267;22;20218;-76
2022/04/02 05:49:33;;;;;;;0.20;0.20;;;;;;;;;;6222424;23;20238;-76
2022/04/02 05:52:00;;;;;;;0.30;0.30;;;;;;;;;;6231271;23;20404;-75
2022/04/02 05:54:28;;;;;;;0.20;0.20;;;;;;;;;;6222963;23;20193;-75
2022/04/02 05:56:56;;;;;;;0.23;0.23;;;;;;;;;;6230493;23;20397;-74
2022/04/02 05:59:23;;;;;;;0.30;0.30;;;;;;;;;;6223555;23;20530;-75
2022/04/02 06:01:49;;;;;;;0.30;0.30;;;;;;;;;;6228399;23;20305;-74
2022/04/02 06:04:16;;;;;;;0.30;0.30;;;;;;;;;;6225703;23;20374;-74
2022/04/02 06:06:42;;;;;;;0.23;0.23;;;;;;;;;;6227219;23;20215;-76
2022/04/02 06:09:08;;;;;;;0.20;0.20;;;;;;;;;;6226867;23;20424;-74
2022/04/02 06:11:35;;;;;;;0.20;0.20;;;;;;;;;;6251461;22;20276;-75
2022/04/02 06:14:03;;;;;;;0.20;0.20;;;;;;;;;;6348117;22;20407;-74
2022/04/02 06:16:29;;;;;;;0.20;0.20;;;;;;;;;;6330396;22;20285;-76
2022/04/02 06:18:55;;;;;;;0.20;0.20;;;;;;;;;;6347693;22;20236;-75
2022/04/02 06:21:22;;;;;;;0.20;0.20;;;;;;;;;;6331263;22;20213;-75
2022/04/02 06:23:48;;;;;;;0.20;0.20;;;;;;;;;;6347789;22;20485;-74
2022/04/02 06:26:14;;;;;;;0.20;0.20;;;;;;;;;;6331485;22;20217;-74
2022/04/02 06:28:43;;;;;;;0.20;0.20;;;;;;;;;;6347249;22;20324;-77
2022/04/02 06:31:12;;;;;;;0.20;0.20;;;;;;;;;;6331115;22;20250;-75
2022/04/02 06:33:39;;;;;;;0.20;0.20;;;;;;;;;;6346812;22;20233;-74
2022/04/02 06:36:07;;;;;;;0.20;0.20;;;;;;;;;;6331115;22;20212;-72
2022/04/02 06:38:34;;;;;;;0.20;0.20;;;;;;;;;;6347198;22;20192;-74
2022/04/02 06:41:01;;;;;;;0.20;0.20;;;;;;;;;;6331752;22;20210;-75
2022/04/02 06:43:27;;;;;;;0.20;0.20;;;;;;;;;;6347137;22;20336;-75
2022/04/02 06:45:53;;;;;;;0.20;0.20;;;;;;;;;;6330696;22;20274;-74
2022/04/02 06:48:21;;;;;;;0.20;0.20;;;;;;;;;;6346878;22;20283;-75
2022/04/02 06:53:27;;;;;;;0.20;0.20;;;;;;;;;;6347079;22;20179;-75
2022/04/02 06:55:54;;;;;;;0.10;0.10;;;;;;;;;;6330751;22;20260;-74
2022/04/02 06:58:25;;;;;;;0.20;0.20;;;;;;;;;;6346822;22;20180;-74
2022/04/02 07:00:51;;;;;;;0.10;0.10;;;;;;;;;;6330837;22;20238;-74
2022/04/02 07:03:17;;;;;;;0.10;0.10;;;;;;;;;;6347459;22;20240;-74
2022/04/02 07:05:45;;;;;;;1.60;1.50;;;;;;;;;;6332561;22;20274;-74
2022/04/02 07:08:12;;;;;;;0.20;0.20;;;;;;;;;;6348884;22;20176;-75
2022/04/02 07:10:38;;;;;;;0.20;0.20;;;;;;;;;;6333325;22;20298;-75
2022/04/02 07:13:05;;;;;;;0.20;0.20;;;;;;;;;;6348975;22;20180;-76
2022/04/02 07:15:31;;;;;;;0.20;0.20;;;;;;;;;;6333030;22;20446;-74
2022/04/02 07:17:57;;;;;;;0.20;0.20;;;;;;;;;;6348866;22;20230;-75
2022/04/02 07:20:27;;;;;;;0.20;0.20;;;;;;;;;;6333623;22;20178;-76
2022/04/02 07:22:55;;;;;;;0.20;0.20;;;;;;;;;;6348295;22;20185;-75
2022/04/02 07:25:22;;;;;;;0.20;0.20;;;;;;;;;;6333049;22;20217;-74
2022/04/02 07:27:50;;;;;;;0.20;0.20;;;;;;;;;;6348513;22;20318;-74
2022/04/02 07:30:18;;;;;;;0.20;0.20;;;;;;;;;;6333408;22;20196;-74
2022/04/02 07:32:44;;;;;;;0.20;0.20;;;;;;;;;;6348051;22;20236;-74
2022/04/02 07:35:11;;;;;;;0.20;0.20;;;;;;;;;;6333271;22;20223;-73
2022/04/02 07:37:45;;;;;;;0.20;0.20;;;;;;;;;;6347969;22;20211;-74
2022/04/02 07:40:17;;;;;;;0.20;0.20;;;;;;;;;;6331582;22;20351;-76
2022/04/02 07:42:47;;;;;;;0.20;0.20;;;;;;;;;;6348392;22;20221;-74
2022/04/02 07:45:18;;;;;;;0.20;0.20;;;;;;;;;;6333310;22;20156;-74
2022/04/02 07:47:48;;;;;;;0.20;0.20;;;;;;;;;;6348029;22;20200;-74
2022/04/02 07:50:16;;;;;;;0.20;0.20;;;;;;;;;;6333098;22;20183;-75
2022/04/02 07:52:43;;;;;;;0.20;0.20;;;;;;;;;;6348087;22;20184;-73
2022/04/02 07:55:10;;;;;;;0.20;0.20;;;;;;;;;;6333190;22;20180;-75
2022/04/02 07:57:40;;;;;;;0.20;0.20;;;;;;;;;;6347907;22;20175;-75
2022/04/02 08:00:10;;;;;;;0.10;0.10;;;;;;;;;;6333163;22;20494;-75
2022/04/02 08:02:37;;;;;;;0.20;0.20;;;;;;;;;;6348023;22;20191;-73
2022/04/02 08:05:06;;;;;;;0.20;0.20;;;;;;;;;;6349356;22;20204;-74
2022/04/02 08:07:33;;;;;;;0.20;0.20;;;;;;;;;;6306755;22;20484;-76
2022/04/02 08:10:00;;;;;;;0.17;0.17;;;;;;;;;;6349201;22;20217;-74
2022/04/02 08:12:26;;;;;;;0.20;0.20;;;;;;;;;;6331986;22;20235;-75
2022/04/02 08:14:54;;;;;;;0.20;0.20;;;;;;;;;;6348780;22;20482;-74
2022/04/02 08:17:22;;;;;;;0.20;0.20;;;;;;;;;;6331566;22;20216;-74
2022/04/02 08:19:49;;;;;;;0.20;0.20;;;;;;;;;;6348826;22;20184;-74
2022/04/02 08:22:17;;;;;;;0.20;0.20;;;;;;;;;;6331618;22;20211;-75
2022/04/02 08:24:44;;;;;;;0.20;0.20;;;;;;;;;;6349506;22;20189;-73
2022/04/02 08:27:14;;;;;;;0.20;0.20;;;;;;;;;;6331659;22;20276;-74
2022/04/02 08:29:58;;;;;;;0.20;0.20;;;;;;;;;;6349465;22;20179;-75
2022/04/02 08:32:30;;;;;;;0.20;0.20;;;;;;;;;;6331455;22;20234;-74
2022/04/02 08:35:14;;;;;;;0.20;0.20;;;;;;;;;;6348175;22;20355;-75
2022/04/02 08:37:50;;;;;;;0.20;0.20;;;;;;;;;;6348421;22;20220;-76
2022/04/02 08:40:27;;;;;;;0.20;0.20;;;;;;;;;;6332614;22;20178;-76
2022/04/02 08:43:11;;;;;;;0.20;0.20;;;;;;;;;;6347594;22;20183;-75
2022/04/02 08:45:48;;;;;;;0.20;0.20;;;;;;;;;;6332686;22;20469;-75
2022/04/02 08:48:32;;;;;;;0.20;0.20;;;;;;;;;;6347683;22;20222;-76
2022/04/02 08:51:13;;;;;;;0.20;0.20;;;;;;;;;;6332615;22;20497;-75
2022/04/02 08:53:44;;;;;;;0.20;0.20;;;;;;;;;;6348541;22;20225;-74
2022/04/02 08:56:11;;;;;;;0.20;0.20;;;;;;;;;;6332242;22;20213;-74
2022/04/02 08:58:49;;;;;;;0.20;0.20;;;;;;;;;;6321234;22;20422;-76
2022/04/02 09:01:25;;;;;;;0.20;0.20;;;;;;;;;;6332054;22;20407;-74
2022/04/02 09:04:06;;;;;;;0.20;0.20;;;;;;;;;;6348892;22;20228;-74
2022/04/02 09:07:03;;;;;;;0.20;0.20;;;;;;;;;;6295704;22;20271;-74
2022/04/02 09:09:48;;;;;;;0.20;0.20;;;;;;;;;;6348632;22;20171;-73
2022/04/02 09:12:42;;;;;;;0.20;0.20;;;;;;;;;;6331196;22;20215;-74
2022/04/02 09:15:09;;;;;;;0.20;0.20;;;;;;;;;;6277928;22;20183;-73
2022/04/02 09:17:38;;;;;;;0.20;0.20;;;;;;;;;;6347373;22;20507;-74
2022/04/02 09:20:13;;;;;;;0.20;0.20;;;;;;;;;;6344308;22;20236;-73
2022/04/02 09:22:50;;;;;;;0.20;0.20;;;;;;;;;;6348538;22;20167;-75
2022/04/02 09:25:30;;;;;;;0.20;0.20;;;;;;;;;;6333145;22;20198;-74
2022/04/02 09:28:18;;;;;;;0.20;0.20;;;;;;;;;;6347225;22;20196;-72
2022/04/02 09:30:59;;;;;;;0.20;0.20;;;;;;;;;;6331858;22;20212;-72
2022/04/02 09:33:52;;;;;;;0.20;0.20;;;;;;;;;;6347590;22;20218;-71
2022/04/02 09:36:34;;;;;;;0.20;0.20;;;;;;;;;;6263462;22;20289;-73
2022/04/02 09:39:06;;;;;;;0.20;0.20;;;;;;;;;;6338961;22;20177;-69
2022/04/02 09:41:41;;;;;;;0.20;0.20;;;;;;;;;;6331505;22;20257;-69
2022/04/02 09:44:17;;;;;;;0.20;0.20;;;;;;;;;;6347724;22;20217;-69
2022/04/02 09:47:00;;;;;;;0.20;0.20;;;;;;;;;;6330807;22;20287;-70
2022/04/02 09:49:34;;;;;;;0.20;0.20;;;;;;;;;;6348223;22;20477;-70
2022/04/02 09:52:02;;;;;;;0.10;0.10;;;;;;;;;;6331147;22;20242;-69
2022/04/02 09:54:35;;;;;;;13.13;12.40;;;;;;;;;;6348732;22;20184;-70
2022/04/02 09:57:07;;;;;;;0.10;0.10;;;;;;;;;;6331240;22;20589;-70
2022/04/02 09:59:38;;;;;;;0.20;0.20;;;;;;;;;;6348292;22;20502;-69
2022/04/02 10:02:05;;;;;;;0.10;0.10;;;;;;;;;;6331421;22;20239;-69
2022/04/02 10:04:39;;;;;;;0.20;0.20;;;;;;;;;;6348217;22;20177;-70
2022/04/02 10:07:09;;;;;;;0.10;0.10;;;;;;;;;;6331183;22;20408;-69
2022/04/02 10:09:39;;;;;;;0.10;0.10;;;;;;;;;;6348271;22;20174;-69
2022/04/02 10:12:08;;;;;;;0.10;0.10;;;;;;;;;;6331317;22;20209;-69
2022/04/02 10:14:35;;;;;;;0.20;0.20;;;;;;;;;;6348023;22;20332;-73
2022/04/02 10:17:04;;;;;;;0.20;0.20;;;;;;;;;;6331040;22;20270;-71
2022/04/02 10:19:31;;;;;;;0.10;0.10;;;;;;;;;;6348357;22;20178;-70
2022/04/02 10:21:58;;;;;;;0.20;0.20;;;;;;;;;;6330084;22;20210;-70
2022/04/02 10:24:25;;;;;;;0.20;0.20;;;;;;;;;;6348210;22;20454;-70
2022/04/02 10:26:54;;;;;;;0.10;0.10;;;;;;;;;;6331000;22;20369;-71
2022/04/02 10:29:54;;;;;;;0.10;0.10;;;;;;;;;;6347865;22;20206;-70
2022/04/02 10:32:32;;;;;;;0.10;0.10;;;;;;;;;;6330477;22;20212;-68
2022/04/02 10:35:04;;;;;;;0.20;0.20;;;;;;;;;;6348186;22;20219;-70
2022/04/02 10:37:33;;;;;;;0.20;0.20;;;;;;;;;;6304846;22;20198;-69
2022/04/02 10:40:02;;;;;;;0.10;0.10;;;;;;;;;;6347467;22;20180;-71
2022/04/02 10:42:33;;;;;;;0.10;0.10;;;;;;;;;;6330701;22;20274;-70
2022/04/02 10:45:00;;;;;;;0.10;0.10;;;;;;;;;;6348159;22;20195;-70
2022/04/02 10:47:27;;;;;;;0.10;0.10;;;;;;;;;;6330994;22;20230;-69
2022/04/02 10:49:58;;;;;;;0.10;0.10;;;;;;;;;;6348067;22;20177;-71
2022/04/02 10:52:26;;;;;;;0.10;0.10;;;;;;;;;;6330806;22;20209;-70
2022/04/02 10:54:52;;;;;;;0.10;0.10;;;;;;;;;;6347950;22;20389;-69
2022/04/02 10:57:18;;;;;;;3.70;3.50;;;;;;;;;;6330766;22;20409;-71
2022/04/02 10:59:48;;;;;;;0.10;0.10;;;;;;;;;;6347684;22;20177;-68
2022/04/02 11:02:21;;;;;;;0.10;0.10;;;;;;;;;;6330884;22;20216;-70
2022/04/02 11:04:54;;;;;;;0.10;0.10;;;;;;;;;;6348129;22;20327;-70
2022/04/02 11:07:26;;;;;;;0.10;0.10;;;;;;;;;;6330706;22;20212;-72
2022/04/02 11:09:53;;;;;;;0.70;0.70;;;;;;;;;;6348284;22;20177;-72
2022/04/02 11:12:27;;;;;;;0.10;0.10;;;;;;;;;;6330684;22;20485;-71
2022/04/02 11:14:57;;;;;;;0.10;0.10;;;;;;;;;;6348089;22;20178;-73
2022/04/02 11:17:28;;;;;;;0.20;0.20;;;;;;;;;;6331020;22;20206;-70
2022/04/02 11:20:02;;;;;;;0.10;0.10;;;;;;;;;;6348082;22;20201;-72
2022/04/02 11:22:29;;;;;;;0.10;0.10;;;;;;;;;;6330692;22;20209;-74
2022/04/02 11:25:03;;;;;;;0.10;0.10;;;;;;;;;;6348021;22;20187;-73
2022/04/02 11:27:30;;;;;;;0.10;0.10;;;;;;;;;;6330528;22;20207;-72
2022/04/02 11:30:01;;;;;;;0.10;0.10;;;;;;;;;;6347558;22;20174;-73
2022/04/02 11:32:29;;;;;;;0.10;0.10;;;;;;;;;;6329807;22;20279;-72
2022/04/02 11:34:56;;;;;;;0.20;0.20;;;;;;;;;;6347700;22;20180;-71
2022/04/02 11:37:26;;;;;;;0.10;0.10;;;;;;;;;;6330184;22;20434;-72
2022/04/02 11:39:53;;;;;;;0.10;0.10;;;;;;;;;;6347576;22;20179;-73
2022/04/02 11:42:25;;;;;;;0.10;0.10;;;;;;;;;;6330466;22;20313;-74
2022/04/02 11:44:52;;;;;;;0.10;0.10;;;;;;;;;;6347608;22;20205;-72
2022/04/02 11:47:26;;;;;;;0.10;0.10;;;;;;;;;;6329776;22;20260;-73
2022/04/02 11:49:54;;;;;;;0.10;0.10;;;;;;;;;;6347817;22;20176;-73
2022/04/02 11:52:20;;;;;;;0.10;0.10;;;;;;;;;;6331874;22;20210;-74
2022/04/02 11:54:59;;;;;;;0.10;0.10;;;;;;;;;;6349064;22;20182;-73
2022/04/02 11:57:25;;;;;;;0.20;0.20;;;;;;;;;;6332077;22;20206;-73
2022/04/02 11:59:52;;;;;;;0.10;0.10;;;;;;;;;;6348984;22;20178;-72
2022/04/02 12:02:39;;;;;;;0.10;0.10;;;;;;;;;;6331913;22;20232;-74
2022/04/02 12:05:06;;;;;;;0.10;0.10;;;;;;;;;;6339954;22;20176;-74
2022/04/02 12:07:40;;;;;;;0.20;0.20;;;;;;;;;;6347767;22;20373;-74
2022/04/02 12:10:12;;;;;;;2.23;0.83;;;;;;;;;;6333747;22;20411;-73
2022/04/02 12:12:42;;;;;;;0.10;0.10;;;;;;;;;;6347662;22;20179;-73
2022/04/02 12:15:09;;;;;;;0.10;0.10;;;;;;;;;;6333409;22;20174;-73
2022/04/02 12:17:37;;;;;;;0.20;0.20;;;;;;;;;;6347790;22;20193;-74
2022/04/02 12:20:07;;;;;;;0.20;0.20;;;;;;;;;;6349532;22;20200;-73
2022/04/02 12:22:36;;;;;;;0.13;0.13;;;;;;;;;;6306323;22;20177;-74
2022/04/02 12:25:04;;;;;;;0.10;0.10;;;;;;;;;;6349474;22;20233;-73
2022/04/02 12:27:30;;;;;;;0.17;0.17;;;;;;;;;;6331966;22;20408;-73
2022/04/02 13:14:12;;;;;;;0.20;0.20;;;;;;;;;;6348368;22;20191;-75
2022/04/02 13:16:39;;;;;;;0.20;0.20;;;;;;;;;;6331799;22;20208;-74
2022/04/02 13:21:59;;;;;;;0.13;0.13;;;;;;;;;;6287091;22;20234;-73
2022/04/02 13:24:32;;;;;;;0.10;0.10;;;;;;;;;;6347367;22;20192;-74
2022/04/02 13:27:17;;;;;;;0.17;0.17;;;;;;;;;;6331655;22;20208;-74
2022/04/02 13:29:53;;;;;;;0.20;0.20;;;;;;;;;;6286296;22;20427;-74
2022/04/02 13:32:28;;;;;;;0.20;0.20;;;;;;;;;;6329390;22;20218;-73
2022/04/02 13:34:59;;;;;;;0.10;0.10;;;;;;;;;;6349033;22;20169;-73
2022/04/02 13:37:36;;;;;;;0.20;0.20;;;;;;;;;;6331275;22;20224;-73
2022/04/02 13:40:03;;;;;;;0.20;0.20;;;;;;;;;;6348361;22;20163;-74
2022/04/02 13:42:35;;;;;;;0.20;0.20;;;;;;;;;;6305531;22;20180;-72
2022/04/02 13:45:03;;;;;;;0.40;0.40;;;;;;;;;;6348990;22;20524;-73
2022/04/02 13:47:30;;;;;;;0.20;0.20;;;;;;;;;;6305729;22;20196;-73
2022/04/02 13:49:57;;;;;;;0.20;0.20;;;;;;;;;;6349085;22;20180;-72
2022/04/02 13:52:25;;;;;;;0.10;0.10;;;;;;;;;;6331317;22;20236;-73
2022/04/02 13:54:58;;;;;;;0.20;0.20;;;;;;;;;;6348430;22;20188;-72
2022/04/02 13:57:30;;;;;;;0.20;0.20;;;;;;;;;;6331014;22;20431;-74
2022/04/02 14:00:00;;;;;;;0.20;0.20;;;;;;;;;;6348639;22;20181;-72
2022/04/02 14:02:28;;;;;;;0.20;0.20;;;;;;;;;;6331104;22;20222;-74
2022/04/02 14:05:00;;;;;;;0.10;0.10;;;;;;;;;;6348501;22;20240;-72
2022/04/02 14:07:29;;;;;;;0.20;0.20;;;;;;;;;;6331123;22;20299;-73
2022/04/02 14:09:58;;;;;;;0.20;0.20;;;;;;;;;;6348209;22;20200;-72
2022/04/02 14:12:31;;;;;;;0.20;0.20;;;;;;;;;;6330908;22;20394;-73
2022/04/02 14:14:59;;;;;;;0.10;0.10;;;;;;;;;;6348309;22;20402;-74
2022/04/02 14:17:31;;;;;;;0.10;0.10;;;;;;;;;;6330780;22;20353;-73
2022/04/02 14:20:06;;;;;;;0.10;0.10;;;;;;;;;;6348132;22;20186;-74
2022/04/02 14:22:37;;;;;;;0.20;0.20;;;;;;;;;;6305700;22;20178;-72
2022/04/02 14:25:10;;;;;;;0.10;0.10;;;;;;;;;;6348738;22;20356;-73
2022/04/02 14:27:51;;;;;;;0.17;0.17;;;;;;;;;;6306089;22;20239;-74
2022/04/02 14:30:25;;;;;;;0.20;0.20;;;;;;;;;;6332441;22;20158;-73
2022/04/02 14:33:21;;;;;;;0.20;0.20;;;;;;;;;;6347284;22;20172;-74
2022/04/02 14:36:02;;;;;;;0.13;0.13;;;;;;;;;;6331076;22;20212;-72
2022/04/02 14:38:47;;;;;;;0.20;0.20;;;;;;;;;;6347009;22;20255;-74
2022/04/02 14:41:19;;;;;;;0.20;0.20;;;;;;;;;;6331878;22;20230;-73
2022/04/02 14:44:10;;;;;;;0.10;0.10;;;;;;;;;;6347715;22;20341;-75
2022/04/02 14:46:43;;;;;;;0.20;0.20;;;;;;;;;;6305957;22;20211;-76
2022/04/02 14:49:28;;;;;;;0.20;0.20;;;;;;;;;;6352578;22;20180;-74
2022/04/02 14:52:13;;;;;;;0.10;0.10;;;;;;;;;;6331378;22;20409;-74
2022/04/02 14:54:58;;;;;;;0.20;0.20;;;;;;;;;;6347956;22;20188;-79
2022/04/02 14:57:43;;;;;;;0.10;0.10;;;;;;;;;;6329957;22;20458;-78
2022/04/02 15:00:27;;;;;;;0.20;0.20;;;;;;;;;;6331278;22;20179;-78
2022/04/02 15:03:13;;;;;;;0.20;0.20;;;;;;;;;;6346786;22;20243;-79
2022/04/02 15:05:58;;;;;;;0.20;0.20;;;;;;;;;;6330790;22;20218;-80
2022/04/02 15:08:39;;;;;;;0.20;0.20;;;;;;;;;;6222058;23;20177;-79
2022/04/02 15:11:12;;;;;;;0.20;0.20;;;;;;;;;;6324587;22;20209;-78
2022/04/02 15:13:39;;;;;;;0.20;0.20;;;;;;;;;;6347622;22;20457;-79
2022/04/02 15:16:07;;;;;;;0.20;0.20;;;;;;;;;;6330640;22;20231;-78
2022/04/02 15:18:43;;;;;;;;;;;;;;;;;;;;;
2022/04/02 15:21:12;;;;;;;0.20;0.20;;;;;;;;;;6280696;22;20221;-78
2022/04/02 15:23:54;;;;;;;0.10;0.10;;;;;;;;;;6222052;23;20175;-78
2022/04/02 15:26:23;;;;;;;0.20;0.20;;;;;;;;;;6204778;23;20274;-76
2022/04/02 15:28:51;;;;;;;0.20;0.20;;;;;;;;;;6223878;23;20179;-79
2022/04/02 15:31:29;;;;;;;0.20;0.20;;;;;;;;;;6208887;23;20214;-76
2022/04/02 15:34:09;;;;;;;0.30;0.30;;;;;;;;;;6224118;23;20209;-76
2022/04/02 15:36:35;;;;;;;0.20;0.20;;;;;;;;;;6208491;23;20218;-77
2022/04/02 15:39:04;;;;;;;0.10;0.10;;;;;;;;;;6223844;23;20209;-76
2022/04/02 15:41:51;;;;;;;0.20;0.20;;;;;;;;;;6208914;23;20345;-76
2022/04/02 15:44:19;;;;;;;0.20;0.20;;;;;;;;;;6223775;23;20273;-72
2022/04/02 15:46:46;;;;;;;0.20;0.20;;;;;;;;;;6234308;22;20210;-73
2022/04/02 15:49:31;;;;;;;0.20;0.20;;;;;;;;;;6344824;22;20176;-72
2022/04/02 15:52:13;;;;;;;0.20;0.20;;;;;;;;;;6332526;22;20241;-74
2022/04/02 15:54:41;;;;;;;0.10;0.10;;;;;;;;;;6349849;22;20306;-73